sensor_id;sensor_type;location;lat;lon;timestamp;temperature;humidity
23873;DHT22;42884;50.718;4.630;2023-02-01T00:01:24;8.00;99.90
23873;DHT22;42884;50.718;4.630;2023-02-01T00:03:49;8.00;99.90
23873;DHT22;42884;50.718;4.630;2023-02-01T00:06:15;8.00;99.90
23873;DHT22;42884;50.718;4.630;2023-02-01T00:08:41;8.10;99.90
23873;DHT22;42884;50.718;4.630;2023-02-01T00:11:07;8.10;99.90
23873;DHT22;42884;50.718;4.630;2023-02-01T00:13:34;8.10;99.90
23873;DHT22;42884;50.718;4.630;2023-02-01T00:16:10;8.20;99.90
23873;DHT22;42884;50.718;4.630;2023-02-01T00:18:37;8.10;99.90
23873;DHT22;42884;50.718;4.630;2023-02-01T00:21:03;8.10;99.90
23873;DHT22;42884;50.718;4.630;2023-02-01T00:23:31;8.10;99.90
23873;DHT22;42884;50.718;4.630;2023-02-01T00:25:59;8.20;99.90
23873;DHT22;42884;50.718;4.630;2023-02-01T00:28:25;8.20;99.90
23873;DHT22;42884;50.718;4.630;2023-02-01T00:30:57;8.10;99.90
23873;DHT22;42884;50.718;4.630;2023-02-01T00:33:23;8.10;99.90
23873;DHT22;42884;50.718;4.630;2023-02-01T00:35:49;8.10;99.90
23873;DHT22;42884;50.718;4.630;2023-02-01T00:38:14;8.10;99.90
23873;DHT22;42884;50.718;4.630;2023-02-01T00:40:40;8.20;99.90
23873;DHT22;42884;50.718;4.630;2023-02-01T00:43:05;8.20;99.90
23873;DHT22;42884;50.718;4.630;2023-02-01T00:45:31;8.20;99.90
23873;DHT22;42884;50.718;4.630;2023-02-01T00:47:56;8.10;99.90
23873;DHT22;42884;50.718;4.630;2023-02-01T00:50:22;8.10;99.90
23873;DHT22;42884;50.718;4.630;2023-02-01T00:52:47;8.10;99.90
23873;DHT22;42884;50.718;4.630;2023-02-01T00:55:13;8.20;99.90
23873;DHT22;42884;50.718;4.630;2023-02-01T00:57:39;8.10;99.90
23873;DHT22;42884;50.718;4.630;2023-02-01T01:00:04;8.30;99.90
23873;DHT22;42884;50.718;4.630;2023-02-01T01:02:30;8.20;99.90
23873;DHT22;42884;50.718;4.630;2023-02-01T01:04:56;8.20;99.90
23873;DHT22;42884;50.718;4.630;2023-02-01T01:07:21;8.30;99.90
23873;DHT22;42884;50.718;4.630;2023-02-01T01:09:47;8.30;99.90
23873;DHT22;42884;50.718;4.630;2023-02-01T01:12:12;8.30;99.90
23873;DHT22;42884;50.718;4.630;2023-02-01T01:14:38;8.30;99.90
23873;DHT22;42884;50.718;4.630;2023-02-01T01:17:03;8.20;99.90
23873;DHT22;42884;50.718;4.630;2023-02-01T01:19:29;8.20;99.90
23873;DHT22;42884;50.718;4.630;2023-02-01T01:21:55;8.20;99.90
23873;DHT22;42884;50.718;4.630;2023-02-01T01:24:20;8.00;99.90
23873;DHT22;42884;50.718;4.630;2023-02-01T01:26:46;8.00;99.90
23873;DHT22;42884;50.718;4.630;2023-02-01T01:29:11;8.00;99.90
23873;DHT22;42884;50.718;4.630;2023-02-01T01:31:37;8.00;99.90
23873;DHT22;42884;50.718;4.630;2023-02-01T01:34:02;8.00;99.90
23873;DHT22;42884;50.718;4.630;2023-02-01T01:36:29;8.00;99.90
23873;DHT22;42884;50.718;4.630;2023-02-01T01:38:54;8.00;99.90
23873;DHT22;42884;50.718;4.630;2023-02-01T01:41:25;8.00;99.90
23873;DHT22;42884;50.718;4.630;2023-02-01T01:46:20;8.00;99.90
23873;DHT22;42884;50.718;4.630;2023-02-01T01:48:48;7.90;99.90
23873;DHT22;42884;50.718;4.630;2023-02-01T01:51:15;8.00;99.90
23873;DHT22;42884;50.718;4.630;2023-02-01T01:53:48;8.00;99.90
23873;DHT22;42884;50.718;4.630;2023-02-01T01:56:15;8.00;99.90
23873;DHT22;42884;50.718;4.630;2023-02-01T01:58:41;7.60;99.90
23873;DHT22;42884;50.718;4.630;2023-02-01T02:01:06;8.10;99.90
23873;DHT22;42884;50.718;4.630;2023-02-01T02:05:59;8.00;99.90
23873;DHT22;42884;50.718;4.630;2023-02-01T02:08:26;8.00;99.90
23873;DHT22;42884;50.718;4.630;2023-02-01T02:10:52;8.00;99.90
23873;DHT22;42884;50.718;4.630;2023-02-01T02:13:40;8.20;99.90
23873;DHT22;42884;50.718;4.630;2023-02-01T02:21:10;8.10;99.90
23873;DHT22;42884;50.718;4.630;2023-02-01T02:26:30;8.20;99.90
23873;DHT22;42884;50.718;4.630;2023-02-01T02:39:16;8.10;99.90
23873;DHT22;42884;50.718;4.630;2023-02-01T02:42:00;8.10;99.90
23873;DHT22;42884;50.718;4.630;2023-02-01T02:47:34;8.10;99.90
23873;DHT22;42884;50.718;4.630;2023-02-01T02:52:57;8.10;99.90
23873;DHT22;42884;50.718;4.630;2023-02-01T02:55:42;8.10;99.90
23873;DHT22;42884;50.718;4.630;2023-02-01T02:58:08;8.10;99.90
23873;DHT22;42884;50.718;4.630;2023-02-01T03:00:54;8.10;99.90
23873;DHT22;42884;50.718;4.630;2023-02-01T03:03:38;8.00;99.90
23873;DHT22;42884;50.718;4.630;2023-02-01T03:06:23;8.00;99.90
23873;DHT22;42884;50.718;4.630;2023-02-01T03:08:49;8.00;99.90
23873;DHT22;42884;50.718;4.630;2023-02-01T03:11:22;8.00;99.90
23873;DHT22;42884;50.718;4.630;2023-02-01T03:13:52;8.00;99.90
23873;DHT22;42884;50.718;4.630;2023-02-01T03:19:09;8.00;99.90
23873;DHT22;42884;50.718;4.630;2023-02-01T03:21:42;8.00;99.90
23873;DHT22;42884;50.718;4.630;2023-02-01T03:24:55;8.00;99.90
23873;DHT22;42884;50.718;4.630;2023-02-01T03:32:10;7.80;99.90
23873;DHT22;42884;50.718;4.630;2023-02-01T03:34:36;7.80;99.90
23873;DHT22;42884;50.718;4.630;2023-02-01T03:37:09;7.80;99.90
23873;DHT22;42884;50.718;4.630;2023-02-01T03:42:05;7.70;99.90
23873;DHT22;42884;50.718;4.630;2023-02-01T03:44:34;7.60;99.90
23873;DHT22;42884;50.718;4.630;2023-02-01T03:47:10;7.40;99.90
23873;DHT22;42884;50.718;4.630;2023-02-01T03:49:43;7.40;99.90
23873;DHT22;42884;50.718;4.630;2023-02-01T03:52:14;7.40;99.90
23873;DHT22;42884;50.718;4.630;2023-02-01T03:54:40;7.40;99.90
23873;DHT22;42884;50.718;4.630;2023-02-01T03:57:10;7.40;99.90
23873;DHT22;42884;50.718;4.630;2023-02-01T03:59:40;7.40;99.90
23873;DHT22;42884;50.718;4.630;2023-02-01T04:02:06;7.40;99.90
23873;DHT22;42884;50.718;4.630;2023-02-01T04:04:31;7.30;99.90
23873;DHT22;42884;50.718;4.630;2023-02-01T04:06:57;7.40;99.90
23873;DHT22;42884;50.718;4.630;2023-02-01T04:09:23;7.40;99.90
23873;DHT22;42884;50.718;4.630;2023-02-01T04:11:48;7.30;99.90
23873;DHT22;42884;50.718;4.630;2023-02-01T04:14:14;7.30;99.90
23873;DHT22;42884;50.718;4.630;2023-02-01T04:16:40;7.30;99.90
23873;DHT22;42884;50.718;4.630;2023-02-01T04:19:05;7.20;99.90
23873;DHT22;42884;50.718;4.630;2023-02-01T04:21:31;7.30;99.90
23873;DHT22;42884;50.718;4.630;2023-02-01T04:23:56;7.20;99.90
23873;DHT22;42884;50.718;4.630;2023-02-01T04:26:22;7.00;99.90
23873;DHT22;42884;50.718;4.630;2023-02-01T04:28:48;7.10;99.90
23873;DHT22;42884;50.718;4.630;2023-02-01T04:31:14;7.10;99.90
23873;DHT22;42884;50.718;4.630;2023-02-01T04:33:39;7.00;99.90
23873;DHT22;42884;50.718;4.630;2023-02-01T04:36:05;7.00;99.90
23873;DHT22;42884;50.718;4.630;2023-02-01T04:38:31;6.90;99.90
23873;DHT22;42884;50.718;4.630;2023-02-01T04:40:58;6.90;99.90
23873;DHT22;42884;50.718;4.630;2023-02-01T04:43:23;6.90;99.90
23873;DHT22;42884;50.718;4.630;2023-02-01T04:45:49;6.80;99.90
23873;DHT22;42884;50.718;4.630;2023-02-01T04:48:16;6.70;99.90
23873;DHT22;42884;50.718;4.630;2023-02-01T04:50:42;6.70;99.90
23873;DHT22;42884;50.718;4.630;2023-02-01T04:53:08;6.60;99.90
23873;DHT22;42884;50.718;4.630;2023-02-01T04:55:34;6.60;99.90
23873;DHT22;42884;50.718;4.630;2023-02-01T04:57:59;6.60;99.90
23873;DHT22;42884;50.718;4.630;2023-02-01T05:00:25;6.50;99.90
23873;DHT22;42884;50.718;4.630;2023-02-01T05:02:50;6.50;99.90
23873;DHT22;42884;50.718;4.630;2023-02-01T05:05:16;6.50;99.90
23873;DHT22;42884;50.718;4.630;2023-02-01T05:07:41;6.50;99.90
23873;DHT22;42884;50.718;4.630;2023-02-01T05:10:07;6.50;99.90
23873;DHT22;42884;50.718;4.630;2023-02-01T05:12:33;6.40;99.90
23873;DHT22;42884;50.718;4.630;2023-02-01T05:15:17;6.40;99.90
23873;DHT22;42884;50.718;4.630;2023-02-01T05:17:42;6.40;99.90
23873;DHT22;42884;50.718;4.630;2023-02-01T05:20:08;6.40;99.90
23873;DHT22;42884;50.718;4.630;2023-02-01T05:22:34;6.30;99.90
23873;DHT22;42884;50.718;4.630;2023-02-01T05:24:59;6.20;99.90
23873;DHT22;42884;50.718;4.630;2023-02-01T05:27:25;6.20;99.90
23873;DHT22;42884;50.718;4.630;2023-02-01T05:29:50;6.20;99.90
23873;DHT22;42884;50.718;4.630;2023-02-01T05:32:16;6.10;99.90
23873;DHT22;42884;50.718;4.630;2023-02-01T05:34:42;6.10;99.90
23873;DHT22;42884;50.718;4.630;2023-02-01T05:37:07;6.00;99.90
23873;DHT22;42884;50.718;4.630;2023-02-01T05:39:33;6.00;99.90
23873;DHT22;42884;50.718;4.630;2023-02-01T05:41:58;6.00;99.90
23873;DHT22;42884;50.718;4.630;2023-02-01T05:44:24;6.00;99.90
23873;DHT22;42884;50.718;4.630;2023-02-01T05:46:49;6.00;99.90
23873;DHT22;42884;50.718;4.630;2023-02-01T05:49:17;5.90;99.90
23873;DHT22;42884;50.718;4.630;2023-02-01T05:51:43;6.00;99.90
23873;DHT22;42884;50.718;4.630;2023-02-01T05:54:08;6.00;99.90
23873;DHT22;42884;50.718;4.630;2023-02-01T05:56:34;6.00;99.90
23873;DHT22;42884;50.718;4.630;2023-02-01T05:59:00;6.00;99.90
23873;DHT22;42884;50.718;4.630;2023-02-01T06:01:25;6.00;99.90
23873;DHT22;42884;50.718;4.630;2023-02-01T06:03:51;6.00;99.90
23873;DHT22;42884;50.718;4.630;2023-02-01T06:06:16;6.00;99.90
23873;DHT22;42884;50.718;4.630;2023-02-01T06:08:44;6.00;99.90
23873;DHT22;42884;50.718;4.630;2023-02-01T06:11:09;6.10;99.90
23873;DHT22;42884;50.718;4.630;2023-02-01T06:13:35;6.00;99.90
23873;DHT22;42884;50.718;4.630;2023-02-01T06:16:01;5.90;99.90
23873;DHT22;42884;50.718;4.630;2023-02-01T06:18:28;5.80;99.90
23873;DHT22;42884;50.718;4.630;2023-02-01T06:20:55;5.70;99.90
23873;DHT22;42884;50.718;4.630;2023-02-01T06:23:21;5.70;99.90
23873;DHT22;42884;50.718;4.630;2023-02-01T06:25:52;5.60;99.90
23873;DHT22;42884;50.718;4.630;2023-02-01T06:28:18;5.60;99.90
23873;DHT22;42884;50.718;4.630;2023-02-01T06:30:44;5.60;99.90
23873;DHT22;42884;50.718;4.630;2023-02-01T06:33:12;5.70;99.90
23873;DHT22;42884;50.718;4.630;2023-02-01T06:35:40;5.60;99.90
23873;DHT22;42884;50.718;4.630;2023-02-01T06:38:06;5.70;99.90
23873;DHT22;42884;50.718;4.630;2023-02-01T06:40:32;5.70;99.90
23873;DHT22;42884;50.718;4.630;2023-02-01T06:42:57;5.60;99.90
23873;DHT22;42884;50.718;4.630;2023-02-01T06:45:23;5.80;99.90
23873;DHT22;42884;50.718;4.630;2023-02-01T06:47:49;5.80;99.90
23873;DHT22;42884;50.718;4.630;2023-02-01T06:50:14;5.80;99.90
23873;DHT22;42884;50.718;4.630;2023-02-01T06:52:45;5.70;99.90
23873;DHT22;42884;50.718;4.630;2023-02-01T06:55:11;5.80;99.90
23873;DHT22;42884;50.718;4.630;2023-02-01T06:57:37;5.80;99.90
23873;DHT22;42884;50.718;4.630;2023-02-01T07:00:03;5.80;99.90
23873;DHT22;42884;50.718;4.630;2023-02-01T07:02:29;5.80;99.90
23873;DHT22;42884;50.718;4.630;2023-02-01T07:04:54;5.70;99.90
23873;DHT22;42884;50.718;4.630;2023-02-01T07:07:20;5.70;99.90
23873;DHT22;42884;50.718;4.630;2023-02-01T07:09:48;5.70;99.90
23873;DHT22;42884;50.718;4.630;2023-02-01T07:12:14;5.60;99.90
23873;DHT22;42884;50.718;4.630;2023-02-01T07:14:39;5.60;99.90
23873;DHT22;42884;50.718;4.630;2023-02-01T07:17:05;5.60;99.90
23873;DHT22;42884;50.718;4.630;2023-02-01T07:19:30;5.60;99.90
23873;DHT22;42884;50.718;4.630;2023-02-01T07:21:56;5.60;99.90
23873;DHT22;42884;50.718;4.630;2023-02-01T07:24:21;5.70;99.90
23873;DHT22;42884;50.718;4.630;2023-02-01T07:26:47;5.60;99.90
23873;DHT22;42884;50.718;4.630;2023-02-01T07:29:14;5.60;99.90
23873;DHT22;42884;50.718;4.630;2023-02-01T07:31:39;5.60;99.90
23873;DHT22;42884;50.718;4.630;2023-02-01T07:34:05;5.60;99.90
23873;DHT22;42884;50.718;4.630;2023-02-01T07:36:30;5.70;99.90
23873;DHT22;42884;50.718;4.630;2023-02-01T07:38:57;5.70;99.90
23873;DHT22;42884;50.718;4.630;2023-02-01T07:41:22;5.60;99.90
23873;DHT22;42884;50.718;4.630;2023-02-01T07:43:48;5.60;99.90
23873;DHT22;42884;50.718;4.630;2023-02-01T07:46:15;5.60;99.90
23873;DHT22;42884;50.718;4.630;2023-02-01T07:48:41;5.70;99.90
23873;DHT22;42884;50.718;4.630;2023-02-01T07:51:14;5.60;99.90
23873;DHT22;42884;50.718;4.630;2023-02-01T07:53:40;5.70;99.90
23873;DHT22;42884;50.718;4.630;2023-02-01T07:56:11;5.80;99.90
23873;DHT22;42884;50.718;4.630;2023-02-01T07:58:37;5.80;99.90
23873;DHT22;42884;50.718;4.630;2023-02-01T08:01:03;5.70;99.90
23873;DHT22;42884;50.718;4.630;2023-02-01T08:03:47;5.70;99.90
23873;DHT22;42884;50.718;4.630;2023-02-01T08:06:13;5.70;99.90
23873;DHT22;42884;50.718;4.630;2023-02-01T08:08:38;5.70;99.90
23873;DHT22;42884;50.718;4.630;2023-02-01T08:11:05;5.70;99.90
23873;DHT22;42884;50.718;4.630;2023-02-01T08:13:30;5.80;99.90
23873;DHT22;42884;50.718;4.630;2023-02-01T08:15:59;5.90;99.90
23873;DHT22;42884;50.718;4.630;2023-02-01T08:18:27;6.00;99.90
23873;DHT22;42884;50.718;4.630;2023-02-01T08:20:52;6.10;99.90
23873;DHT22;42884;50.718;4.630;2023-02-01T08:23:19;6.20;99.90
23873;DHT22;42884;50.718;4.630;2023-02-01T08:25:44;6.30;99.90
23873;DHT22;42884;50.718;4.630;2023-02-01T08:28:10;6.30;99.90
23873;DHT22;42884;50.718;4.630;2023-02-01T08:30:36;6.40;99.90
23873;DHT22;42884;50.718;4.630;2023-02-01T08:33:02;6.50;99.90
23873;DHT22;42884;50.718;4.630;2023-02-01T08:35:27;6.50;99.90
23873;DHT22;42884;50.718;4.630;2023-02-01T08:37:53;6.50;99.90
23873;DHT22;42884;50.718;4.630;2023-02-01T08:40:19;6.50;99.90
23873;DHT22;42884;50.718;4.630;2023-02-01T08:42:46;6.50;99.90
23873;DHT22;42884;50.718;4.630;2023-02-01T08:45:26;6.60;99.90
23873;DHT22;42884;50.718;4.630;2023-02-01T08:47:53;6.50;99.90
23873;DHT22;42884;50.718;4.630;2023-02-01T08:50:19;6.60;99.90
23873;DHT22;42884;50.718;4.630;2023-02-01T08:52:45;6.70;99.90
23873;DHT22;42884;50.718;4.630;2023-02-01T08:55:11;6.80;99.90
23873;DHT22;42884;50.718;4.630;2023-02-01T08:57:37;6.80;99.90
23873;DHT22;42884;50.718;4.630;2023-02-01T09:00:03;6.80;99.90
23873;DHT22;42884;50.718;4.630;2023-02-01T09:02:29;6.90;99.90
23873;DHT22;42884;50.718;4.630;2023-02-01T09:04:55;7.00;99.90
23873;DHT22;42884;50.718;4.630;2023-02-01T09:07:21;7.00;99.90
23873;DHT22;42884;50.718;4.630;2023-02-01T09:09:46;7.00;99.90
23873;DHT22;42884;50.718;4.630;2023-02-01T09:12:12;7.00;99.90
23873;DHT22;42884;50.718;4.630;2023-02-01T09:14:37;7.00;99.90
23873;DHT22;42884;50.718;4.630;2023-02-01T09:17:03;7.10;99.90
23873;DHT22;42884;50.718;4.630;2023-02-01T09:19:30;7.30;99.90
23873;DHT22;42884;50.718;4.630;2023-02-01T09:21:56;7.40;99.90
23873;DHT22;42884;50.718;4.630;2023-02-01T09:24:22;7.50;99.90
23873;DHT22;42884;50.718;4.630;2023-02-01T09:26:47;7.50;99.90
23873;DHT22;42884;50.718;4.630;2023-02-01T09:29:14;7.60;99.90
23873;DHT22;42884;50.718;4.630;2023-02-01T09:31:39;7.60;99.90
23873;DHT22;42884;50.718;4.630;2023-02-01T09:34:05;7.70;99.90
23873;DHT22;42884;50.718;4.630;2023-02-01T09:36:31;7.70;99.90
23873;DHT22;42884;50.718;4.630;2023-02-01T09:38:57;7.80;99.90
23873;DHT22;42884;50.718;4.630;2023-02-01T09:46:53;8.00;99.90
23873;DHT22;42884;50.718;4.630;2023-02-01T09:49:26;8.10;99.90
23873;DHT22;42884;50.718;4.630;2023-02-01T09:51:53;8.20;99.90
23873;DHT22;42884;50.718;4.630;2023-02-01T09:54:20;8.40;99.90
23873;DHT22;42884;50.718;4.630;2023-02-01T09:57:01;8.70;99.90
23873;DHT22;42884;50.718;4.630;2023-02-01T10:02:28;9.70;99.90
23873;DHT22;42884;50.718;4.630;2023-02-01T10:04:56;10.20;99.90
23873;DHT22;42884;50.718;4.630;2023-02-01T10:22:50;10.10;99.90
23873;DHT22;42884;50.718;4.630;2023-02-01T10:25:28;9.90;99.90
23873;DHT22;42884;50.718;4.630;2023-02-01T10:27:55;9.80;99.90
23873;DHT22;42884;50.718;4.630;2023-02-01T10:30:23;9.50;99.90
23873;DHT22;42884;50.718;4.630;2023-02-01T10:32:49;9.30;99.90
23873;DHT22;42884;50.718;4.630;2023-02-01T10:35:18;9.20;99.90
23873;DHT22;42884;50.718;4.630;2023-02-01T10:37:45;9.30;99.90
23873;DHT22;42884;50.718;4.630;2023-02-01T10:42:37;9.50;99.90
23873;DHT22;42884;50.718;4.630;2023-02-01T10:45:04;9.70;99.90
23873;DHT22;42884;50.718;4.630;2023-02-01T10:47:31;9.80;99.90
23873;DHT22;42884;50.718;4.630;2023-02-01T10:50:15;9.90;99.90
23873;DHT22;42884;50.718;4.630;2023-02-01T10:52:46;10.20;99.90
23873;DHT22;42884;50.718;4.630;2023-02-01T10:58:03;11.50;99.90
23873;DHT22;42884;50.718;4.630;2023-02-01T11:00:43;12.20;99.90
23873;DHT22;42884;50.718;4.630;2023-02-01T11:08:43;13.30;99.90
23873;DHT22;42884;50.718;4.630;2023-02-01T11:11:10;13.70;99.90
23873;DHT22;42884;50.718;4.630;2023-02-01T11:13:37;14.10;99.90
23873;DHT22;42884;50.718;4.630;2023-02-01T11:16:03;14.50;99.90
23873;DHT22;42884;50.718;4.630;2023-02-01T11:18:31;14.00;99.90
23873;DHT22;42884;50.718;4.630;2023-02-01T11:20:56;13.50;99.90
23873;DHT22;42884;50.718;4.630;2023-02-01T11:23:27;13.20;99.90
23873;DHT22;42884;50.718;4.630;2023-02-01T11:26:26;13.10;99.90
23873;DHT22;42884;50.718;4.630;2023-02-01T11:28:50;13.00;99.90
23873;DHT22;42884;50.718;4.630;2023-02-01T11:31:17;12.70;99.90
23873;DHT22;42884;50.718;4.630;2023-02-01T11:33:46;12.40;99.90
23873;DHT22;42884;50.718;4.630;2023-02-01T11:36:14;12.20;99.90
23873;DHT22;42884;50.718;4.630;2023-02-01T11:38:41;12.10;99.90
23873;DHT22;42884;50.718;4.630;2023-02-01T11:41:12;11.90;99.90
23873;DHT22;42884;50.718;4.630;2023-02-01T11:43:49;12.00;99.90
23873;DHT22;42884;50.718;4.630;2023-02-01T11:46:19;12.00;99.90
23873;DHT22;42884;50.718;4.630;2023-02-01T11:48:53;11.80;99.90
23873;DHT22;42884;50.718;4.630;2023-02-01T11:54:01;12.00;99.90
23873;DHT22;42884;50.718;4.630;2023-02-01T11:56:37;12.20;99.90
23873;DHT22;42884;50.718;4.630;2023-02-01T11:59:23;12.30;99.90
23873;DHT22;42884;50.718;4.630;2023-02-01T12:01:58;12.60;99.90
23873;DHT22;42884;50.718;4.630;2023-02-01T12:04:53;12.90;99.90
23873;DHT22;42884;50.718;4.630;2023-02-01T12:32:55;16.30;99.90
23873;DHT22;42884;50.718;4.630;2023-02-01T12:35:32;16.70;99.90
23873;DHT22;42884;50.718;4.630;2023-02-01T12:38:12;16.30;99.90
23873;DHT22;42884;50.718;4.630;2023-02-01T12:43:21;15.60;99.90
23873;DHT22;42884;50.718;4.630;2023-02-01T12:45:55;15.60;99.90
23873;DHT22;42884;50.718;4.630;2023-02-01T12:48:40;16.10;99.90
23873;DHT22;42884;50.718;4.630;2023-02-01T12:51:18;16.50;99.90
23873;DHT22;42884;50.718;4.630;2023-02-01T12:53:47;16.10;99.90
23873;DHT22;42884;50.718;4.630;2023-02-01T12:56:18;16.40;99.90
23873;DHT22;42884;50.718;4.630;2023-02-01T12:58:46;15.80;99.90
23873;DHT22;42884;50.718;4.630;2023-02-01T13:01:15;15.90;99.90
23873;DHT22;42884;50.718;4.630;2023-02-01T13:03:47;15.20;99.90
23873;DHT22;42884;50.718;4.630;2023-02-01T13:06:16;15.10;99.90
23873;DHT22;42884;50.718;4.630;2023-02-01T13:11:33;15.90;99.90
23873;DHT22;42884;50.718;4.630;2023-02-01T13:16:39;15.80;99.90
23873;DHT22;42884;50.718;4.630;2023-02-01T13:19:09;15.90;99.90
23873;DHT22;42884;50.718;4.630;2023-02-01T13:21:38;16.10;99.90
23873;DHT22;42884;50.718;4.630;2023-02-01T13:24:04;16.20;99.90
23873;DHT22;42884;50.718;4.630;2023-02-01T13:26:31;16.20;99.90
23873;DHT22;42884;50.718;4.630;2023-02-01T13:28:58;16.50;99.90
23873;DHT22;42884;50.718;4.630;2023-02-01T13:34:22;16.80;99.90
23873;DHT22;42884;50.718;4.630;2023-02-01T13:42:00;14.30;99.90
23873;DHT22;42884;50.718;4.630;2023-02-01T13:44:32;14.30;99.90
23873;DHT22;42884;50.718;4.630;2023-02-01T13:47:00;14.00;99.90
23873;DHT22;42884;50.718;4.630;2023-02-01T13:49:27;13.90;99.90
23873;DHT22;42884;50.718;4.630;2023-02-01T13:51:55;13.90;99.90
23873;DHT22;42884;50.718;4.630;2023-02-01T13:54:29;13.90;99.90
23873;DHT22;42884;50.718;4.630;2023-02-01T13:56:55;14.00;99.90
23873;DHT22;42884;50.718;4.630;2023-02-01T14:04:49;13.50;99.90
23873;DHT22;42884;50.718;4.630;2023-02-01T14:07:19;13.20;99.90
23873;DHT22;42884;50.718;4.630;2023-02-01T14:09:44;13.00;99.90
23873;DHT22;42884;50.718;4.630;2023-02-01T14:12:52;12.70;99.90
23873;DHT22;42884;50.718;4.630;2023-02-01T14:15:17;12.30;99.90
23873;DHT22;42884;50.718;4.630;2023-02-01T14:17:43;12.10;99.90
23873;DHT22;42884;50.718;4.630;2023-02-01T14:23:00;11.60;99.90
23873;DHT22;42884;50.718;4.630;2023-02-01T14:25:25;11.70;99.90
23873;DHT22;42884;50.718;4.630;2023-02-01T14:27:57;11.80;99.90
23873;DHT22;42884;50.718;4.630;2023-02-01T14:30:22;11.70;99.90
23873;DHT22;42884;50.718;4.630;2023-02-01T14:32:48;11.60;99.90
23873;DHT22;42884;50.718;4.630;2023-02-01T14:35:24;11.60;99.90
23873;DHT22;42884;50.718;4.630;2023-02-01T14:37:59;11.40;99.90
23873;DHT22;42884;50.718;4.630;2023-02-01T14:40:26;11.60;99.90
23873;DHT22;42884;50.718;4.630;2023-02-01T14:42:52;11.60;99.90
23873;DHT22;42884;50.718;4.630;2023-02-01T15:00:51;11.20;99.90
23873;DHT22;42884;50.718;4.630;2023-02-01T15:03:22;11.10;99.90
23873;DHT22;42884;50.718;4.630;2023-02-01T15:05:56;11.00;99.90
23873;DHT22;42884;50.718;4.630;2023-02-01T15:08:28;11.10;99.90
23873;DHT22;42884;50.718;4.630;2023-02-01T15:10:55;11.20;99.90
23873;DHT22;42884;50.718;4.630;2023-02-01T15:13:23;11.20;99.90
23873;DHT22;42884;50.718;4.630;2023-02-01T15:18:27;11.20;99.90
23873;DHT22;42884;50.718;4.630;2023-02-01T15:20:57;11.10;99.90
23873;DHT22;42884;50.718;4.630;2023-02-01T15:23:23;11.10;99.90
23873;DHT22;42884;50.718;4.630;2023-02-01T15:25:48;11.00;99.90
23873;DHT22;42884;50.718;4.630;2023-02-01T15:28:14;10.90;99.90
23873;DHT22;42884;50.718;4.630;2023-02-01T15:30:51;10.90;99.90
23873;DHT22;42884;50.718;4.630;2023-02-01T15:33:18;10.90;99.90
23873;DHT22;42884;50.718;4.630;2023-02-01T15:35:45;10.90;99.90
23873;DHT22;42884;50.718;4.630;2023-02-01T15:38:24;10.90;99.90
23873;DHT22;42884;50.718;4.630;2023-02-01T15:41:07;10.80;99.90
23873;DHT22;42884;50.718;4.630;2023-02-01T15:46:02;10.80;99.90
23873;DHT22;42884;50.718;4.630;2023-02-01T15:51:24;10.60;99.90
23873;DHT22;42884;50.718;4.630;2023-02-01T15:53:51;10.60;99.90
23873;DHT22;42884;50.718;4.630;2023-02-01T15:56:22;10.50;99.90
23873;DHT22;42884;50.718;4.630;2023-02-01T15:58:49;10.50;99.90
23873;DHT22;42884;50.718;4.630;2023-02-01T16:01:15;10.60;99.90
23873;DHT22;42884;50.718;4.630;2023-02-01T16:03:44;10.60;99.90
23873;DHT22;42884;50.718;4.630;2023-02-01T16:06:12;10.70;99.90
23873;DHT22;42884;50.718;4.630;2023-02-01T16:08:52;10.70;99.90
23873;DHT22;42884;50.718;4.630;2023-02-01T16:13:51;10.80;99.90
23873;DHT22;42884;50.718;4.630;2023-02-01T16:16:16;10.80;99.90
23873;DHT22;42884;50.718;4.630;2023-02-01T16:18:42;10.70;99.90
23873;DHT22;42884;50.718;4.630;2023-02-01T16:21:08;10.60;99.90
23873;DHT22;42884;50.718;4.630;2023-02-01T16:23:34;10.60;99.90
23873;DHT22;42884;50.718;4.630;2023-02-01T16:26:00;10.70;99.90
23873;DHT22;42884;50.718;4.630;2023-02-01T16:28:25;10.70;99.90
23873;DHT22;42884;50.718;4.630;2023-02-01T16:30:51;10.60;99.90
23873;DHT22;42884;50.718;4.630;2023-02-01T16:33:18;10.50;99.90
23873;DHT22;42884;50.718;4.630;2023-02-01T16:35:45;10.40;99.90
23873;DHT22;42884;50.718;4.630;2023-02-01T16:38:12;10.60;99.90
23873;DHT22;42884;50.718;4.630;2023-02-01T16:40:38;10.60;99.90
23873;DHT22;42884;50.718;4.630;2023-02-01T16:45:42;10.40;99.90
23873;DHT22;42884;50.718;4.630;2023-02-01T16:48:25;10.50;99.90
23873;DHT22;42884;50.718;4.630;2023-02-01T16:50:58;10.40;99.90
23873;DHT22;42884;50.718;4.630;2023-02-01T16:53:26;10.30;99.90
23873;DHT22;42884;50.718;4.630;2023-02-01T16:55:53;10.30;99.90
23873;DHT22;42884;50.718;4.630;2023-02-01T16:58:19;10.20;99.90
23873;DHT22;42884;50.718;4.630;2023-02-01T17:00:45;10.30;99.90
23873;DHT22;42884;50.718;4.630;2023-02-01T17:03:11;10.30;99.90
23873;DHT22;42884;50.718;4.630;2023-02-01T17:05:43;10.30;99.90
23873;DHT22;42884;50.718;4.630;2023-02-01T17:08:09;10.20;99.90
23873;DHT22;42884;50.718;4.630;2023-02-01T17:10:35;10.20;99.90
23873;DHT22;42884;50.718;4.630;2023-02-01T17:13:03;10.20;99.90
23873;DHT22;42884;50.718;4.630;2023-02-01T17:15:31;10.10;99.90
23873;DHT22;42884;50.718;4.630;2023-02-01T17:17:59;10.10;99.90
23873;DHT22;42884;50.718;4.630;2023-02-01T17:20:29;10.10;99.90
23873;DHT22;42884;50.718;4.630;2023-02-01T17:22:55;10.10;99.90
23873;DHT22;42884;50.718;4.630;2023-02-01T17:25:21;10.00;99.90
23873;DHT22;42884;50.718;4.630;2023-02-01T17:27:47;9.90;99.90
23873;DHT22;42884;50.718;4.630;2023-02-01T17:30:13;9.90;99.90
23873;DHT22;42884;50.718;4.630;2023-02-01T17:32:39;9.90;99.90
23873;DHT22;42884;50.718;4.630;2023-02-01T17:35:05;9.90;99.90
23873;DHT22;42884;50.718;4.630;2023-02-01T17:37:31;10.00;99.90
23873;DHT22;42884;50.718;4.630;2023-02-01T17:39:58;10.00;99.90
23873;DHT22;42884;50.718;4.630;2023-02-01T17:42:24;10.00;99.90
23873;DHT22;42884;50.718;4.630;2023-02-01T17:44:58;10.00;99.90
23873;DHT22;42884;50.718;4.630;2023-02-01T17:47:25;10.00;99.90
23873;DHT22;42884;50.718;4.630;2023-02-01T17:49:50;9.90;99.90
23873;DHT22;42884;50.718;4.630;2023-02-01T17:52:21;9.90;99.90
23873;DHT22;42884;50.718;4.630;2023-02-01T17:54:47;9.90;99.90
23873;DHT22;42884;50.718;4.630;2023-02-01T17:57:15;9.80;99.90
23873;DHT22;42884;50.718;4.630;2023-02-01T17:59:41;9.70;99.90
23873;DHT22;42884;50.718;4.630;2023-02-01T18:02:13;9.70;99.90
23873;DHT22;42884;50.718;4.630;2023-02-01T18:04:41;9.60;99.90
23873;DHT22;42884;50.718;4.630;2023-02-01T18:07:07;9.60;99.90
23873;DHT22;42884;50.718;4.630;2023-02-01T18:09:33;9.60;99.90
23873;DHT22;42884;50.718;4.630;2023-02-01T18:11:58;9.60;99.90
23873;DHT22;42884;50.718;4.630;2023-02-01T18:14:26;9.70;99.90
23873;DHT22;42884;50.718;4.630;2023-02-01T18:16:52;9.70;99.90
23873;DHT22;42884;50.718;4.630;2023-02-01T18:19:19;9.70;99.90
23873;DHT22;42884;50.718;4.630;2023-02-01T18:21:44;9.80;99.90